Time;durP1;ratioP1;P1;durP2;ratioP2;P2;SDS_P1;SDS_P2;PMS_P1;PMS_P2;Temp;Humidity;BMP_temperature;BMP_pressure;BME280_temperature;BME280_humidity;BME280_pressure;Samples;Min_cycle;Max_cycle;Signal;HPM_P1;HPM_P2
2023/10/18 00:00:35;;;;;;;24.63;23.33;;;;;;;;;;4979693;28;20062;-61
2023/10/18 00:03:04;;;;;;;26.25;24.83;;;;;;;;;;4982925;28;20045;-61
2023/10/18 00:05:31;;;;;;;25.42;24.00;;;;;;;;;;4981072;28;20065;-61
2023/10/18 00:07:57;;;;;;;24.77;23.48;;;;;;;;;;4982223;28;20128;-60
2023/10/18 00:10:27;;;;;;;22.88;21.65;;;;;;;;;;4984329;28;20043;-61
2023/10/18 00:12:53;;;;;;;25.35;24.02;;;;;;;;;;4980421;28;20464;-62
2023/10/18 00:15:20;;;;;;;24.20;22.70;;;;;;;;;;4982550;28;20578;-63
2023/10/18 00:17:45;;;;;;;23.20;21.98;;;;;;;;;;4966165;28;20112;-63
2023/10/18 00:20:15;;;;;;;22.55;21.33;;;;;;;;;;4979914;28;20046;-63
2023/10/18 00:22:42;;;;;;;24.70;23.40;;;;;;;;;;4980335;28;20053;-63
2023/10/18 00:25:10;;;;;;;26.27;24.88;;;;;;;;;;4980264;28;20052;-63
2023/10/18 00:27:37;;;;;;;25.90;24.42;;;;;;;;;;4982222;28;20062;-63
2023/10/18 00:30:07;;;;;;;23.98;22.73;;;;;;;;;;4978511;28;20491;-63
2023/10/18 00:32:34;;;;;;;24.17;22.85;;;;;;;;;;4980590;28;20495;-63
2023/10/18 00:34:59;;;;;;;25.42;24.02;;;;;;;;;;4982438;28;20061;-63
2023/10/18 00:37:25;;;;;;;22.75;21.45;;;;;;;;;;4978375;28;20045;-63
2023/10/18 00:39:51;;;;;;;23.48;22.13;;;;;;;;;;4982364;28;20043;-63
2023/10/18 00:42:27;;;;;;;23.42;22.13;;;;;;;;;;4981490;28;20038;-63
2023/10/18 00:44:55;;;;;;;22.67;21.48;;;;;;;;;;4982241;28;20061;-63
2023/10/18 00:47:23;;;;;;;22.07;20.87;;;;;;;;;;4980169;28;20038;-61
2023/10/18 00:49:52;;;;;;;22.38;21.15;;;;;;;;;;4979080;28;20595;-61
2023/10/18 00:52:20;;;;;;;25.15;23.77;;;;;;;;;;4979057;28;20030;-61
2023/10/18 00:54:46;;;;;;;23.27;22.02;;;;;;;;;;4982307;28;20111;-61
2023/10/18 00:57:12;;;;;;;23.13;21.88;;;;;;;;;;4980826;28;20519;-60
2023/10/18 00:59:38;;;;;;;29.05;27.48;;;;;;;;;;4979946;28;20046;-62
2023/10/18 01:02:10;;;;;;;28.30;26.80;;;;;;;;;;4980593;28;20384;-61
2023/10/18 01:04:37;;;;;;;27.80;26.30;;;;;;;;;;4976770;28;20128;-61
2023/10/18 01:07:12;;;;;;;27.88;26.35;;;;;;;;;;4979563;28;20088;-61
2023/10/18 01:09:43;;;;;;;29.23;27.42;;;;;;;;;;4979143;28;20034;-60
2023/10/18 01:12:09;;;;;;;27.90;26.40;;;;;;;;;;4981819;28;20031;-60
2023/10/18 01:14:36;;;;;;;28.70;27.20;;;;;;;;;;4977533;28;20038;-61
2023/10/18 01:17:04;;;;;;;27.95;26.48;;;;;;;;;;4981208;28;20468;-61
2023/10/18 01:19:30;;;;;;;27.50;26.05;;;;;;;;;;4980117;28;20046;-61
2023/10/18 01:21:56;;;;;;;32.90;31.17;;;;;;;;;;4981011;28;20420;-60
2023/10/18 01:24:21;;;;;;;32.95;31.20;;;;;;;;;;4979690;28;20030;-60
2023/10/18 01:26:47;;;;;;;32.05;30.33;;;;;;;;;;4979066;28;20045;-60
2023/10/18 01:29:13;;;;;;;31.88;30.17;;;;;;;;;;4982431;28;20430;-61
2023/10/18 01:31:45;;;;;;;31.88;30.17;;;;;;;;;;4979611;28;20117;-61
2023/10/18 01:34:11;;;;;;;32.17;30.40;;;;;;;;;;4982617;28;20053;-60
2023/10/18 01:36:39;;;;;;;32.17;30.50;;;;;;;;;;4980192;28;20034;-60
2023/10/18 01:39:28;;;;;;;30.80;29.00;;;;;;;;;;4981664;28;20622;-61
2023/10/18 01:41:54;;;;;;;26.15;24.75;;;;;;;;;;4980692;28;20030;-61
2023/10/18 01:44:30;;;;;;;26.30;24.90;;;;;;;;;;4981476;28;20033;-61
2023/10/18 01:47:15;;;;;;;26.92;25.50;;;;;;;;;;4979746;28;20089;-60
2023/10/18 01:49:44;;;;;;;25.55;24.20;;;;;;;;;;4982603;28;20036;-61
2023/10/18 01:52:17;;;;;;;25.42;24.05;;;;;;;;;;4979095;28;20104;-61
2023/10/18 01:54:42;;;;;;;24.42;23.15;;;;;;;;;;4977562;28;20074;-61
2023/10/18 01:57:09;;;;;;;25.35;23.98;;;;;;;;;;4979268;28;20056;-61
2023/10/18 01:59:34;;;;;;;26.08;24.67;;;;;;;;;;4978311;28;20041;-61
2023/10/18 02:02:05;;;;;;;26.52;25.05;;;;;;;;;;4977583;28;20033;-61
2023/10/18 02:04:36;;;;;;;24.10;22.75;;;;;;;;;;4979477;28;20035;-61
2023/10/18 02:07:02;;;;;;;23.50;22.23;;;;;;;;;;4978562;28;20519;-61
2023/10/18 02:09:47;;;;;;;25.55;24.15;;;;;;;;;;4978899;28;20026;-61
2023/10/18 02:12:18;;;;;;;24.75;23.40;;;;;;;;;;4979856;28;20038;-62
2023/10/18 02:14:44;;;;;;;;;;;;;;;;;;4979205;28;20050;-62
2023/10/18 02:17:10;;;;;;;21.20;19.95;;;;;;;;;;4979621;28;19917;-62
2023/10/18 02:19:37;;;;;;;24.08;22.75;;;;;;;;;;4979222;28;20042;-63
2023/10/18 02:22:07;;;;;;;27.13;25.63;;;;;;;;;;4980332;28;20034;-63
2023/10/18 02:24:33;;;;;;;27.33;25.70;;;;;;;;;;4978928;28;20113;-62
2023/10/18 02:27:01;;;;;;;26.27;24.90;;;;;;;;;;4977188;28;20536;-64
2023/10/18 02:29:34;;;;;;;24.55;23.25;;;;;;;;;;4980085;28;20029;-62
2023/10/18 02:32:04;;;;;;;24.25;22.98;;;;;;;;;;4979308;28;20050;-62
2023/10/18 02:34:33;;;;;;;25.55;24.17;;;;;;;;;;4979768;28;20027;-63
2023/10/18 02:37:00;;;;;;;25.75;24.38;;;;;;;;;;4980567;28;20045;-63
2023/10/18 02:39:33;;;;;;;25.33;23.92;;;;;;;;;;4978968;28;20468;-63
2023/10/18 02:41:59;;;;;;;24.63;23.27;;;;;;;;;;4980764;28;20031;-63
2023/10/18 02:44:28;;;;;;;24.60;23.20;;;;;;;;;;4979594;28;20026;-62
2023/10/18 02:47:01;;;;;;;24.23;22.67;;;;;;;;;;4981563;28;20046;-63
2023/10/18 02:49:28;;;;;;;24.33;22.98;;;;;;;;;;4980147;28;20031;-60
2023/10/18 02:51:54;;;;;;;23.30;22.05;;;;;;;;;;4979655;28;20571;-60
2023/10/18 02:54:24;;;;;;;21.73;20.55;;;;;;;;;;4979626;28;20039;-60
2023/10/18 02:56:53;;;;;;;19.87;18.77;;;;;;;;;;4977717;28;20096;-60
2023/10/18 02:59:24;;;;;;;19.70;18.42;;;;;;;;;;4980125;28;20038;-60
2023/10/18 03:01:52;;;;;;;20.30;19.20;;;;;;;;;;4978444;28;20045;-63
2023/10/18 03:04:19;;;;;;;20.33;19.20;;;;;;;;;;4983228;28;20368;-60
2023/10/18 03:06:50;;;;;;;19.23;18.10;;;;;;;;;;4979895;28;20038;-60
2023/10/18 03:12:01;;;;;;;21.30;20.10;;;;;;;;;;4980080;28;20042;-60
2023/10/18 03:14:54;;;;;;;24.48;23.17;;;;;;;;;;4977611;28;20046;-60
2023/10/18 03:17:22;;;;;;;22.52;21.25;;;;;;;;;;4975918;28;20079;-60
2023/10/18 03:19:54;;;;;;;27.90;26.35;;;;;;;;;;4979048;28;20050;-60
2023/10/18 03:22:20;;;;;;;;;;;;;;;;;;4978975;28;20031;-62
2023/10/18 03:24:54;;;;;;;24.20;22.92;;;;;;;;;;4978693;28;19917;-60
2023/10/18 03:27:19;;;;;;;36.70;34.80;;;;;;;;;;4981600;28;20144;-63
2023/10/18 03:29:45;;;;;;;43.17;40.95;;;;;;;;;;4984124;28;20106;-62
2023/10/18 03:32:15;;;;;;;43.42;41.17;;;;;;;;;;4979468;28;20033;-63
2023/10/18 03:34:41;;;;;;;47.95;45.50;;;;;;;;;;4983924;28;20061;-63
2023/10/18 03:37:20;;;;;;;46.88;44.45;;;;;;;;;;4981119;28;20053;-62
2023/10/18 03:39:48;;;;;;;48.33;45.85;;;;;;;;;;4984506;28;20042;-64
2023/10/18 03:42:30;;;;;;;46.72;44.33;;;;;;;;;;4978812;28;20029;-60
2023/10/18 03:45:13;;;;;;;43.40;41.17;;;;;;;;;;4981686;28;20038;-62
2023/10/18 03:47:39;;;;;;;41.75;39.60;;;;;;;;;;4983388;28;20038;-63
2023/10/18 03:50:18;;;;;;;39.13;37.08;;;;;;;;;;4983400;28;20762;-64
2023/10/18 03:52:45;;;;;;;38.03;36.08;;;;;;;;;;4980889;28;20113;-64
2023/10/18 03:55:23;;;;;;;36.00;34.05;;;;;;;;;;4979224;28;20065;-63
2023/10/18 03:57:54;;;;;;;31.27;29.63;;;;;;;;;;4979848;28;20034;-63
2023/10/18 04:00:28;;;;;;;29.83;28.05;;;;;;;;;;4981972;28;20030;-63
2023/10/18 04:02:59;;;;;;;33.83;31.98;;;;;;;;;;4980696;28;20363;-63
2023/10/18 04:05:44;;;;;;;32.97;31.23;;;;;;;;;;4982929;28;20026;-63
2023/10/18 04:08:14;;;;;;;31.42;29.77;;;;;;;;;;4981032;28;20073;-63
2023/10/18 04:10:41;;;;;;;32.25;30.55;;;;;;;;;;4981253;28;20038;-63
2023/10/18 04:13:14;;;;;;;36.33;34.42;;;;;;;;;;4982220;28;20573;-63
2023/10/18 04:15:45;;;;;;;37.92;35.88;;;;;;;;;;4983935;28;20752;-63
2023/10/18 04:18:25;;;;;;;35.17;33.33;;;;;;;;;;4980840;28;20043;-63
2023/10/18 04:20:52;;;;;;;39.40;37.30;;;;;;;;;;4979077;28;20115;-63
2023/10/18 04:23:27;;;;;;;34.40;32.63;;;;;;;;;;4982105;28;20035;-63
2023/10/18 04:25:59;;;;;;;32.22;30.52;;;;;;;;;;4982254;28;20065;-63
2023/10/18 04:28:26;;;;;;;34.75;32.75;;;;;;;;;;4980355;28;20049;-63
2023/10/18 04:31:01;;;;;;;33.85;32.00;;;;;;;;;;4980142;28;20046;-63
2023/10/18 04:33:43;;;;;;;33.38;31.63;;;;;;;;;;4979938;28;20093;-63
2023/10/18 04:36:11;;;;;;;31.60;29.83;;;;;;;;;;4980654;28;20476;-63
2023/10/18 04:38:42;;;;;;;31.30;29.50;;;;;;;;;;4981220;28;20346;-63
2023/10/18 04:41:09;;;;;;;27.70;25.80;;;;;;;;;;4983578;28;20679;-63
2023/10/18 04:43:39;;;;;;;26.45;25.02;;;;;;;;;;4981643;28;20034;-63
2023/10/18 04:46:14;;;;;;;28.50;26.90;;;;;;;;;;4981302;28;20239;-63
2023/10/18 04:51:26;;;;;;;24.85;23.42;;;;;;;;;;4979122;28;20419;-63
2023/10/18 04:54:01;;;;;;;22.13;20.73;;;;;;;;;;4999176;28;20476;-63
2023/10/18 04:56:39;;;;;;;21.70;20.45;;;;;;;;;;4979199;28;20052;-63
2023/10/18 04:59:11;;;;;;;20.40;19.25;;;;;;;;;;4978723;28;20038;-63
2023/10/18 05:01:41;;;;;;;19.30;18.25;;;;;;;;;;4978107;28;20428;-63
2023/10/18 05:04:20;;;;;;;18.67;17.63;;;;;;;;;;4983815;28;20043;-63
2023/10/18 05:06:56;;;;;;;19.58;18.48;;;;;;;;;;4979105;28;20062;-63
2023/10/18 05:09:41;;;;;;;19.80;18.67;;;;;;;;;;4982502;28;20065;-63
2023/10/18 05:14:44;;;;;;;20.27;19.15;;;;;;;;;;4981400;28;20121;-63
2023/10/18 05:17:21;;;;;;;19.67;18.58;;;;;;;;;;4982370;28;20113;-63
2023/10/18 05:19:48;;;;;;;19.40;18.15;;;;;;;;;;4981899;28;20341;-63
2023/10/18 05:22:22;;;;;;;17.83;16.83;;;;;;;;;;4981266;28;20036;-63
2023/10/18 05:24:55;;;;;;;17.90;16.70;;;;;;;;;;4979071;28;20046;-63
2023/10/18 05:27:27;;;;;;;19.08;17.98;;;;;;;;;;4983030;28;20034;-63
2023/10/18 05:29:57;;;;;;;18.85;17.75;;;;;;;;;;4976624;28;20114;-63
2023/10/18 05:32:39;;;;;;;18.55;17.42;;;;;;;;;;4979470;28;20114;-63
2023/10/18 05:35:21;;;;;;;18.67;17.63;;;;;;;;;;4980283;28;20042;-65
2023/10/18 05:37:59;;;;;;;18.65;17.20;;;;;;;;;;4978152;28;20038;-63
2023/10/18 05:43:05;;;;;;;17.55;16.58;;;;;;;;;;4998187;28;20039;-63
2023/10/18 05:45:32;;;;;;;17.60;16.58;;;;;;;;;;4978679;28;20047;-63
2023/10/18 05:48:03;;;;;;;17.15;16.15;;;;;;;;;;4978776;28;20030;-63
2023/10/18 05:50:34;;;;;;;;;;;;;;;;;;4983986;28;20030;-63
2023/10/18 05:53:03;;;;;;;16.92;15.93;;;;;;;;;;4975166;28;19957;-63
2023/10/18 05:55:30;;;;;;;15.80;14.82;;;;;;;;;;4981993;28;20046;-63
2023/10/18 05:57:56;;;;;;;15.50;14.60;;;;;;;;;;4979589;28;20049;-63
2023/10/18 06:00:22;;;;;;;15.98;14.98;;;;;;;;;;4978697;28;20057;-63
2023/10/18 06:02:48;;;;;;;18.90;17.10;;;;;;;;;;4978670;28;20404;-63
2023/10/18 06:05:13;;;;;;;17.13;16.15;;;;;;;;;;4976066;28;20491;-63
2023/10/18 06:07:39;;;;;;;18.55;17.05;;;;;;;;;;4974687;28;20397;-62
2023/10/18 06:10:16;;;;;;;16.90;15.80;;;;;;;;;;4977234;28;20046;-63
2023/10/18 06:12:48;;;;;;;18.50;17.27;;;;;;;;;;4977474;28;20038;-63
2023/10/18 06:15:14;;;;;;;18.45;17.27;;;;;;;;;;4994529;28;20042;-62
2023/10/18 06:20:23;;;;;;;18.40;17.38;;;;;;;;;;4978845;28;20133;-63
2023/10/18 06:22:50;;;;;;;17.23;16.23;;;;;;;;;;4981538;28;20078;-62
2023/10/18 06:25:25;;;;;;;17.52;16.40;;;;;;;;;;4978288;28;20058;-63
2023/10/18 06:27:53;;;;;;;18.83;17.73;;;;;;;;;;4981310;28;20591;-64
2023/10/18 06:30:18;;;;;;;15.98;15.07;;;;;;;;;;4980555;28;20561;-65
2023/10/18 06:32:47;;;;;;;17.25;16.27;;;;;;;;;;4977474;28;20104;-63
2023/10/18 06:35:17;;;;;;;17.40;16.30;;;;;;;;;;4982214;28;20137;-61
2023/10/18 06:37:44;;;;;;;17.25;16.25;;;;;;;;;;4978760;28;20101;-62
2023/10/18 06:42:57;;;;;;;16.77;15.77;;;;;;;;;;4979630;28;20030;-62
2023/10/18 06:45:25;;;;;;;17.13;16.02;;;;;;;;;;4978776;28;20034;-61
2023/10/18 06:47:54;;;;;;;17.95;16.92;;;;;;;;;;4977844;28;20082;-61
2023/10/18 06:50:26;;;;;;;17.60;16.52;;;;;;;;;;4979890;28;20126;-60
2023/10/18 06:52:52;;;;;;;18.25;17.23;;;;;;;;;;4978458;28;20105;-61
2023/10/18 07:00:51;;;;;;;18.83;17.73;;;;;;;;;;4981527;28;20105;-60
2023/10/18 07:03:33;;;;;;;18.67;17.58;;;;;;;;;;4985234;28;20053;-60
2023/10/18 07:06:04;;;;;;;17.60;16.52;;;;;;;;;;4982454;28;20041;-60
2023/10/18 07:08:33;;;;;;;18.27;17.17;;;;;;;;;;4984439;28;20056;-60
2023/10/18 07:11:01;;;;;;;18.83;17.73;;;;;;;;;;4980402;28;20062;-60
2023/10/18 07:13:33;;;;;;;21.65;20.38;;;;;;;;;;4980458;28;20373;-60
2023/10/18 07:16:00;;;;;;;20.77;19.48;;;;;;;;;;4983161;28;20030;-60
2023/10/18 07:18:27;;;;;;;19.35;18.05;;;;;;;;;;4980906;28;20118;-60
2023/10/18 07:20:59;;;;;;;18.70;17.50;;;;;;;;;;4984224;28;20137;-60
2023/10/18 07:23:26;;;;;;;20.13;18.83;;;;;;;;;;4981235;28;20023;-60
2023/10/18 07:25:52;;;;;;;20.67;18.98;;;;;;;;;;4985258;28;20030;-60
2023/10/18 07:28:21;;;;;;;18.00;16.88;;;;;;;;;;4983628;28;20054;-60
2023/10/18 07:30:47;;;;;;;17.48;16.27;;;;;;;;;;4984474;28;20038;-60
2023/10/18 07:33:15;;;;;;;16.65;15.65;;;;;;;;;;4980380;28;20026;-61
2023/10/18 07:35:46;;;;;;;15.70;14.80;;;;;;;;;;4982730;28;20030;-61
2023/10/18 07:38:11;;;;;;;15.38;14.48;;;;;;;;;;4979717;28;20054;-60
2023/10/18 07:40:41;;;;;;;16.00;15.00;;;;;;;;;;4980718;28;20030;-60
2023/10/18 07:43:12;;;;;;;15.13;14.13;;;;;;;;;;4980418;28;20052;-60
2023/10/18 07:45:39;;;;;;;17.30;16.20;;;;;;;;;;4983212;28;20034;-60
2023/10/18 07:48:05;;;;;;;15.68;14.73;;;;;;;;;;4982787;28;20054;-60
2023/10/18 07:53:06;;;;;;;16.25;15.25;;;;;;;;;;4982670;28;20030;-60
2023/10/18 07:55:36;;;;;;;15.48;14.52;;;;;;;;;;4980226;28;20031;-60
2023/10/18 07:58:17;;;;;;;16.02;15.13;;;;;;;;;;4982613;28;20514;-60
2023/10/18 08:01:06;;;;;;;15.38;14.45;;;;;;;;;;4981940;28;20141;-60
2023/10/18 08:03:30;;;;;;;15.98;14.98;;;;;;;;;;4982210;28;20069;-60
2023/10/18 08:05:56;;;;;;;16.95;15.73;;;;;;;;;;4983210;28;20432;-61
2023/10/18 08:08:25;;;;;;;17.00;15.90;;;;;;;;;;4980357;28;20073;-60
2023/10/18 08:10:55;;;;;;;16.52;15.45;;;;;;;;;;4985005;28;20027;-60
2023/10/18 08:13:28;;;;;;;16.65;15.35;;;;;;;;;;4979224;28;20065;-60
2023/10/18 08:15:54;;;;;;;21.85;20.30;;;;;;;;;;4984004;28;20031;-61
2023/10/18 08:18:39;;;;;;;17.08;15.98;;;;;;;;;;4979700;28;20141;-60
2023/10/18 08:21:08;;;;;;;16.80;15.80;;;;;;;;;;4979542;28;20055;-60
2023/10/18 08:26:05;;;;;;;17.83;16.73;;;;;;;;;;4981455;28;20048;-60
2023/10/18 08:28:45;;;;;;;17.42;16.35;;;;;;;;;;4983095;28;20041;-59
2023/10/18 08:31:33;;;;;;;17.17;15.97;;;;;;;;;;4978704;28;20467;-60
2023/10/18 08:34:05;;;;;;;15.93;15.02;;;;;;;;;;4981360;28;20233;-60
2023/10/18 08:36:31;;;;;;;17.92;16.52;;;;;;;;;;4982655;28;20034;-60
2023/10/18 08:38:57;;;;;;;16.58;15.52;;;;;;;;;;4982184;28;20498;-60
2023/10/18 08:41:31;;;;;;;17.38;16.17;;;;;;;;;;4980072;28;20038;-61
2023/10/18 08:44:09;;;;;;;15.23;14.32;;;;;;;;;;4984506;28;20141;-61
2023/10/18 08:46:41;;;;;;;16.50;15.50;;;;;;;;;;4981114;28;20038;-60
2023/10/18 08:49:08;;;;;;;16.48;15.50;;;;;;;;;;4983253;28;20496;-60
2023/10/18 08:51:35;;;;;;;16.88;15.68;;;;;;;;;;4979216;28;20421;-60
2023/10/18 08:54:02;;;;;;;17.35;16.35;;;;;;;;;;4982286;28;20050;-61
2023/10/18 08:56:33;;;;;;;15.68;14.70;;;;;;;;;;4979304;28;20124;-60
2023/10/18 08:58:58;;;;;;;17.23;16.23;;;;;;;;;;4982189;28;20050;-61
2023/10/18 09:01:25;;;;;;;16.33;15.32;;;;;;;;;;4982264;28;20022;-61
2023/10/18 09:03:51;;;;;;;17.05;15.95;;;;;;;;;;4982605;28;20113;-60
2023/10/18 09:06:23;;;;;;;16.35;15.35;;;;;;;;;;4982631;28;20419;-59
2023/10/18 09:09:07;;;;;;;16.38;15.38;;;;;;;;;;4981893;28;20049;-60
2023/10/18 09:11:34;;;;;;;17.83;16.60;;;;;;;;;;4979893;28;20035;-60
2023/10/18 09:14:33;;;;;;;17.67;16.55;;;;;;;;;;4965024;28;20113;-60
2023/10/18 09:17:00;;;;;;;18.42;17.42;;;;;;;;;;4978544;28;20582;-61
2023/10/18 09:19:27;;;;;;;17.63;16.63;;;;;;;;;;4983545;28;20384;-60
2023/10/18 09:22:01;;;;;;;20.40;19.20;;;;;;;;;;4978290;28;20508;-60
2023/10/18 09:24:32;;;;;;;20.10;18.85;;;;;;;;;;4979163;28;20057;-60
2023/10/18 09:26:57;;;;;;;20.42;19.33;;;;;;;;;;4994093;28;20364;-60
2023/10/18 09:29:25;;;;;;;19.13;18.02;;;;;;;;;;4979607;28;20033;-60
2023/10/18 09:32:01;;;;;;;23.65;22.15;;;;;;;;;;4980753;28;20058;-61
2023/10/18 09:34:33;;;;;;;20.55;19.35;;;;;;;;;;4981985;28;20027;-60
2023/10/18 09:36:59;;;;;;;23.08;21.83;;;;;;;;;;4979206;28;20557;-61
2023/10/18 09:39:44;;;;;;;21.23;20.02;;;;;;;;;;4978610;28;20026;-59
2023/10/18 09:42:12;;;;;;;21.75;20.48;;;;;;;;;;4979617;28;20046;-60
2023/10/18 09:44:41;;;;;;;20.77;19.58;;;;;;;;;;4982612;28;20041;-60
2023/10/18 09:47:07;;;;;;;19.90;18.67;;;;;;;;;;4980884;28;20034;-60
2023/10/18 09:49:34;;;;;;;19.58;18.40;;;;;;;;;;4982011;28;20161;-60
2023/10/18 09:52:03;;;;;;;19.58;18.38;;;;;;;;;;4979384;28;20887;-60
2023/10/18 09:54:34;;;;;;;18.90;17.80;;;;;;;;;;4978875;28;20034;-60
2023/10/18 09:57:01;;;;;;;19.50;17.95;;;;;;;;;;4981557;28;20050;-60
2023/10/18 09:59:31;;;;;;;17.70;16.70;;;;;;;;;;4977936;28;20038;-60
2023/10/18 10:02:07;;;;;;;18.80;17.70;;;;;;;;;;4980780;28;20022;-60
2023/10/18 10:04:35;;;;;;;21.23;19.92;;;;;;;;;;4979375;28;20101;-60
2023/10/18 10:09:49;;;;;;;19.38;18.23;;;;;;;;;;4979453;28;20408;-61
2023/10/18 10:12:17;;;;;;;18.90;17.60;;;;;;;;;;4978497;28;20053;-60
2023/10/18 10:14:42;;;;;;;18.05;17.05;;;;;;;;;;4980014;28;20070;-60
2023/10/18 10:17:11;;;;;;;21.55;20.35;;;;;;;;;;4975830;28;20074;-63
2023/10/18 10:19:44;;;;;;;20.52;19.35;;;;;;;;;;4979581;28;20034;-60
2023/10/18 10:22:12;;;;;;;19.80;18.60;;;;;;;;;;4979897;28;20527;-61
2023/10/18 10:24:42;;;;;;;21.95;20.67;;;;;;;;;;4978909;28;20089;-61
2023/10/18 10:32:52;;;;;;;17.65;16.58;;;;;;;;;;4980657;28;20293;-60
2023/10/18 10:35:25;;;;;;;19.63;16.90;;;;;;;;;;4978025;28;20531;-60
2023/10/18 10:37:55;;;;;;;15.68;14.77;;;;;;;;;;4985500;28;20070;-59
2023/10/18 10:43:08;;;;;;;19.05;17.23;;;;;;;;;;4983902;28;20273;-60
2023/10/18 10:51:13;;;;;;;19.40;18.30;;;;;;;;;;4984741;28;20470;-59
2023/10/18 10:53:44;;;;;;;20.20;19.10;;;;;;;;;;4977470;28;20030;-60
2023/10/18 10:56:19;;;;;;;22.13;20.88;;;;;;;;;;4983230;28;20041;-59
2023/10/18 10:59:01;;;;;;;22.27;20.98;;;;;;;;;;4982319;28;20050;-59
2023/10/18 11:01:39;;;;;;;24.25;22.95;;;;;;;;;;4981917;28;20030;-59
2023/10/18 11:04:11;;;;;;;22.77;21.48;;;;;;;;;;4978169;28;20035;-59
2023/10/18 11:06:42;;;;;;;23.85;22.55;;;;;;;;;;4980622;28;20029;-59
2023/10/18 11:09:09;;;;;;;23.85;22.55;;;;;;;;;;4982374;28;20120;-59
2023/10/18 11:11:35;;;;;;;22.85;21.55;;;;;;;;;;4979323;28;20046;-59
2023/10/18 11:14:01;;;;;;;22.90;21.55;;;;;;;;;;4983613;28;20031;-59
2023/10/18 11:16:26;;;;;;;22.65;21.35;;;;;;;;;;4981745;28;20034;-59
2023/10/18 11:18:52;;;;;;;23.05;21.75;;;;;;;;;;4983766;28;20107;-59
2023/10/18 11:21:24;;;;;;;20.98;19.70;;;;;;;;;;4979711;28;20116;-60
2023/10/18 11:23:57;;;;;;;21.45;20.25;;;;;;;;;;4983721;28;20050;-60
2023/10/18 11:26:24;;;;;;;24.40;23.05;;;;;;;;;;4981746;28;20043;-61
2023/10/18 11:28:55;;;;;;;24.45;23.05;;;;;;;;;;4980598;28;20058;-61
2023/10/18 11:31:26;;;;;;;21.70;20.42;;;;;;;;;;4982079;28;20034;-60
2023/10/18 11:33:57;;;;;;;23.17;21.88;;;;;;;;;;4980852;28;20027;-60
2023/10/18 11:36:27;;;;;;;22.63;21.02;;;;;;;;;;4997490;28;20042;-61
2023/10/18 11:39:18;;;;;;;23.05;21.77;;;;;;;;;;4981455;28;20045;-60
2023/10/18 11:41:56;;;;;;;21.48;20.27;;;;;;;;;;4978817;28;20071;-61
2023/10/18 11:44:30;;;;;;;22.38;21.17;;;;;;;;;;4984471;28;20049;-59
2023/10/18 11:47:18;;;;;;;21.63;20.42;;;;;;;;;;4995375;28;20062;-62
2023/10/18 11:49:45;;;;;;;20.60;19.50;;;;;;;;;;4982230;28;20448;-62
2023/10/18 11:52:17;;;;;;;22.38;21.13;;;;;;;;;;4979765;28;20031;-61
2023/10/18 11:54:44;;;;;;;21.98;20.77;;;;;;;;;;4981240;28;20080;-61
2023/10/18 11:57:25;;;;;;;24.98;23.67;;;;;;;;;;4985228;28;20113;-61
2023/10/18 11:59:55;;;;;;;24.90;23.50;;;;;;;;;;4977442;28;20057;-61
2023/10/18 12:02:30;;;;;;;24.58;23.17;;;;;;;;;;4982120;28;20034;-61
2023/10/18 12:04:57;;;;;;;25.42;23.95;;;;;;;;;;4980866;28;20038;-60
2023/10/18 12:07:22;;;;;;;22.15;20.95;;;;;;;;;;4979096;28;20046;-60
2023/10/18 12:09:51;;;;;;;24.85;23.45;;;;;;;;;;4982600;28;20100;-61
2023/10/18 12:12:20;;;;;;;26.38;24.30;;;;;;;;;;4982460;28;20113;-61
2023/10/18 12:14:47;;;;;;;21.15;19.98;;;;;;;;;;4981471;28;20571;-61
2023/10/18 12:17:13;;;;;;;28.98;27.48;;;;;;;;;;4979777;28;20097;-61
2023/10/18 12:19:39;;;;;;;22.17;20.98;;;;;;;;;;4981901;28;20122;-61
2023/10/18 12:22:07;;;;;;;22.75;21.38;;;;;;;;;;4980261;28;20031;-61
2023/10/18 12:24:36;;;;;;;24.20;22.80;;;;;;;;;;4981657;28;20046;-60
2023/10/18 12:27:18;;;;;;;22.00;20.80;;;;;;;;;;4980018;28;20042;-59
2023/10/18 12:29:44;;;;;;;21.40;20.20;;;;;;;;;;4981116;28;20663;-60
2023/10/18 12:32:19;;;;;;;21.92;20.73;;;;;;;;;;4982860;28;20109;-59
2023/10/18 12:34:48;;;;;;;21.17;19.98;;;;;;;;;;4981647;28;20080;-60
2023/10/18 12:37:15;;;;;;;22.63;21.42;;;;;;;;;;4983624;28;20038;-61
2023/10/18 12:39:46;;;;;;;22.48;21.23;;;;;;;;;;4978850;28;20153;-62
2023/10/18 12:42:12;;;;;;;;;;;;;;;;;;4982415;28;20428;-60
2023/10/18 12:44:39;;;;;;;21.20;20.00;;;;;;;;;;4981814;28;19921;-63
2023/10/18 12:47:09;;;;;;;23.88;22.58;;;;;;;;;;4979005;28;20070;-62
2023/10/18 12:49:43;;;;;;;26.48;25.02;;;;;;;;;;4980359;28;20042;-60
2023/10/18 12:52:39;;;;;;;27.60;26.13;;;;;;;;;;4978298;28;20165;-63
2023/10/18 12:54:55;;;;;;;25.40;24.00;;;;;;;;;;4978422;28;20035;-60
2023/10/18 12:57:21;;;;;;;28.67;27.13;;;;;;;;;;4980685;28;20116;-61
2023/10/18 13:05:08;;;;;;;30.55;28.95;;;;;;;;;;4981447;28;20042;-61
2023/10/18 13:07:37;;;;;;;30.30;28.60;;;;;;;;;;4979569;28;20089;-60
2023/10/18 13:10:11;;;;;;;30.38;28.50;;;;;;;;;;4981924;28;20105;-60
2023/10/18 13:12:53;;;;;;;31.20;29.50;;;;;;;;;;4980234;28;20555;-61
2023/10/18 13:15:19;;;;;;;28.98;27.45;;;;;;;;;;4981809;28;20042;-60
2023/10/18 13:17:44;;;;;;;29.30;27.70;;;;;;;;;;4977479;28;20062;-62
2023/10/18 13:20:15;;;;;;;29.58;27.95;;;;;;;;;;4977907;28;21268;-61
2023/10/18 13:22:41;;;;;;;29.55;27.98;;;;;;;;;;4979081;28;20125;-60
2023/10/18 13:25:09;;;;;;;30.38;28.77;;;;;;;;;;4980916;28;20061;-61
2023/10/18 13:27:38;;;;;;;31.52;29.83;;;;;;;;;;4977659;28;20038;-61
2023/10/18 13:30:31;;;;;;;26.65;25.20;;;;;;;;;;4979198;28;20038;-61
2023/10/18 13:33:01;;;;;;;24.38;23.08;;;;;;;;;;4964080;28;20035;-61
2023/10/18 13:35:28;;;;;;;28.95;27.45;;;;;;;;;;4978968;28;20046;-61
2023/10/18 13:37:55;;;;;;;30.65;29.02;;;;;;;;;;4979441;28;20030;-61
2023/10/18 13:40:20;;;;;;;29.30;27.70;;;;;;;;;;4979253;28;20085;-61
2023/10/18 13:42:49;;;;;;;31.13;29.42;;;;;;;;;;4979542;28;20322;-61
2023/10/18 13:45:15;;;;;;;31.50;29.70;;;;;;;;;;4980217;28;20045;-60
2023/10/18 13:47:41;;;;;;;30.70;29.10;;;;;;;;;;4978854;28;20042;-60
2023/10/18 13:50:10;;;;;;;32.42;30.63;;;;;;;;;;4983059;28;20121;-60
2023/10/18 13:52:37;;;;;;;32.88;31.13;;;;;;;;;;4979742;28;20097;-61
2023/10/18 13:55:03;;;;;;;31.02;29.38;;;;;;;;;;4979146;28;20030;-61
2023/10/18 13:57:28;;;;;;;26.75;25.35;;;;;;;;;;4979103;28;20049;-61
2023/10/18 13:59:54;;;;;;;31.08;29.45;;;;;;;;;;4981555;28;20034;-61
2023/10/18 14:02:26;;;;;;;29.38;27.83;;;;;;;;;;4979277;28;20508;-60
2023/10/18 14:04:53;;;;;;;30.05;28.45;;;;;;;;;;4981276;28;20111;-60
2023/10/18 14:07:20;;;;;;;29.52;28.00;;;;;;;;;;4980458;28;20056;-61
2023/10/18 14:09:45;;;;;;;29.70;28.08;;;;;;;;;;4977815;28;20050;-61
2023/10/18 14:12:11;;;;;;;29.25;27.73;;;;;;;;;;4981576;28;20026;-62
2023/10/18 14:14:37;;;;;;;26.70;25.30;;;;;;;;;;4980323;28;20453;-61
2023/10/18 14:17:03;;;;;;;27.83;26.33;;;;;;;;;;4981076;28;20026;-60
2023/10/18 14:19:29;;;;;;;27.23;25.77;;;;;;;;;;4979960;28;20058;-61
2023/10/18 14:21:55;;;;;;;26.92;25.42;;;;;;;;;;4977845;28;20200;-62
2023/10/18 14:24:25;;;;;;;25.13;23.83;;;;;;;;;;4976624;28;20042;-60
2023/10/18 14:26:51;;;;;;;26.52;25.13;;;;;;;;;;4976871;28;20180;-62
2023/10/18 14:29:16;;;;;;;24.50;23.20;;;;;;;;;;4976847;28;20037;-61
2023/10/18 14:31:42;;;;;;;25.23;23.88;;;;;;;;;;4977665;28;20441;-62
2023/10/18 14:34:07;;;;;;;28.13;26.63;;;;;;;;;;4976206;28;20101;-61
2023/10/18 14:36:33;;;;;;;25.02;23.63;;;;;;;;;;4978563;28;20038;-62
2023/10/18 14:38:59;;;;;;;23.38;22.13;;;;;;;;;;4979764;28;20034;-62
2023/10/18 14:41:24;;;;;;;23.80;22.52;;;;;;;;;;4980552;28;20035;-61
2023/10/18 14:43:51;;;;;;;25.02;23.65;;;;;;;;;;4979903;28;20038;-62
2023/10/18 14:46:21;;;;;;;26.15;24.75;;;;;;;;;;4980647;28;20039;-62
2023/10/18 14:48:47;;;;;;;25.30;23.90;;;;;;;;;;4981094;28;20038;-61
2023/10/18 14:51:13;;;;;;;26.30;24.90;;;;;;;;;;4979819;28;20040;-61
2023/10/18 14:53:43;;;;;;;25.40;24.05;;;;;;;;;;4981662;28;20038;-62
2023/10/18 14:56:16;;;;;;;27.60;26.10;;;;;;;;;;4976619;28;20144;-62
2023/10/18 14:58:47;;;;;;;28.27;26.77;;;;;;;;;;4977644;28;20034;-63
2023/10/18 15:01:13;;;;;;;26.27;24.88;;;;;;;;;;4976502;28;20045;-63
2023/10/18 15:03:43;;;;;;;26.40;25.00;;;;;;;;;;4974084;28;20042;-63
2023/10/18 15:06:09;;;;;;;26.00;24.60;;;;;;;;;;4976376;28;20492;-63
2023/10/18 15:08:39;;;;;;;28.95;27.45;;;;;;;;;;4975858;28;20034;-63
2023/10/18 15:11:14;;;;;;;27.85;26.35;;;;;;;;;;4976418;28;20565;-62
2023/10/18 15:13:44;;;;;;;29.10;27.48;;;;;;;;;;4977783;28;20057;-63
2023/10/18 15:16:10;;;;;;;28.05;26.55;;;;;;;;;;4978951;28;20375;-63
2023/10/18 15:18:36;;;;;;;28.55;26.95;;;;;;;;;;4980678;28;20035;-64
2023/10/18 15:21:03;;;;;;;28.55;27.05;;;;;;;;;;4977311;28;20022;-64
2023/10/18 15:23:29;;;;;;;29.73;28.17;;;;;;;;;;4981763;28;20106;-62